Time;durP1;ratioP1;P1;durP2;ratioP2;P2;SDS_P1;SDS_P2;PMS_P1;PMS_P2;Temp;Humidity;BMP_temperature;BMP_pressure;BME280_temperature;BME280_humidity;BME280_pressure;Samples;Min_cycle;Max_cycle;Signal;HPM_P1;HPM_P2
2021/01/23 00:01:10;;;;;;;29.27;21.50;;;;;;;0.85;88.21;99568.24;1781395;80;21587;-65
2021/01/23 00:03:38;;;;;;;33.78;23.15;;;;;;;0.85;88.21;99565.68;1781280;80;21630;-68
2021/01/23 00:06:06;;;;;;;32.38;22.65;;;;;;;0.83;88.25;99568.28;1781375;80;21564;-65
2021/01/23 00:08:35;;;;;;;30.25;21.23;;;;;;;0.84;88.28;99561.44;1781391;80;22142;-69
2021/01/23 00:11:04;;;;;;;27.98;20.20;;;;;;;0.83;88.27;99552.91;1807304;79;21489;-68
2021/01/23 00:13:32;;;;;;;30.12;20.85;;;;;;;0.82;88.32;99560.19;1733599;82;21521;-68
2021/01/23 00:16:00;;;;;;;26.60;19.82;;;;;;;0.82;88.31;99555.50;1810240;79;21449;-70
2021/01/23 00:18:30;;;;;;;31.82;21.45;;;;;;;0.81;88.31;99560.22;1733546;82;21125;-69
2021/01/23 00:20:59;;;;;;;29.48;20.43;;;;;;;0.80;88.29;99561.94;1733562;81;22174;-69
2021/01/23 00:23:27;;;;;;;32.33;21.20;;;;;;;0.79;88.38;99562.02;1733490;82;21636;-69
2021/01/23 00:25:55;;;;;;;28.02;21.40;;;;;;;0.77;88.37;99568.45;1733525;81;21498;-69
2021/01/23 00:28:24;;;;;;;29.00;21.02;;;;;;;0.75;88.40;99568.93;1733482;82;21493;-69
2021/01/23 00:30:52;;;;;;;28.23;20.70;;;;;;;0.75;88.48;99566.80;1733545;81;21516;-69
2021/01/23 00:33:21;;;;;;;30.32;20.97;;;;;;;0.74;88.57;99572.37;1810262;79;22160;-69
2021/01/23 00:35:49;;;;;;;27.25;20.85;;;;;;;0.74;88.58;99579.22;1733492;82;21540;-66
2021/01/23 00:38:18;;;;;;;29.63;20.95;;;;;;;0.74;88.57;99573.65;1810327;79;21473;-69
2021/01/23 00:40:46;;;;;;;28.40;20.00;;;;;;;0.74;88.60;99574.09;1733534;82;20939;-67
2021/01/23 00:43:15;;;;;;;28.55;19.70;;;;;;;0.75;88.57;99570.65;1810216;79;21492;-68
2021/01/23 00:45:43;;;;;;;28.90;19.27;;;;;;;0.76;88.60;99572.33;1733549;82;22175;-67
2021/01/23 00:48:13;;;;;;;27.90;19.17;;;;;;;0.77;88.56;99575.30;1810152;79;21595;-68
2021/01/23 00:50:41;;;;;;;28.12;21.10;;;;;;;0.76;88.57;99578.73;1733511;82;21161;-69
2021/01/23 00:53:10;;;;;;;28.10;20.20;;;;;;;0.73;88.55;99578.81;1733495;82;21556;-67
2021/01/23 00:55:39;;;;;;;28.90;20.92;;;;;;;0.73;88.61;99577.53;1810180;79;21551;-69
2021/01/23 00:58:07;;;;;;;33.73;22.50;;;;;;;0.71;88.65;99571.59;1733627;82;22096;-68
2021/01/23 01:00:35;;;;;;;32.30;21.52;;;;;;;0.70;88.71;99559.66;1810179;79;21564;-69
2021/01/23 01:03:05;;;;;;;26.90;19.12;;;;;;;0.71;88.82;99560.06;1733559;82;21478;-66
2021/01/23 01:05:37;;;;;;;28.65;20.10;;;;;;;0.72;88.84;99563.88;1809969;79;38572;-67
2021/01/23 01:08:05;;;;;;;29.37;21.23;;;;;;;0.74;88.82;99568.97;1733534;82;21520;-67
2021/01/23 01:10:34;;;;;;;28.90;21.23;;;;;;;0.73;88.83;99564.28;1740274;82;22239;-68
2021/01/23 01:13:04;;;;;;;28.35;20.55;;;;;;;0.74;88.88;99561.28;1760585;81;21528;-68
2021/01/23 01:15:33;;;;;;;32.45;21.52;;;;;;;0.74;88.89;99565.96;1744104;82;21373;-68
2021/01/23 01:18:01;;;;;;;28.90;21.33;;;;;;;0.76;88.88;99553.11;1760590;81;21575;-68
2021/01/23 01:20:30;;;;;;;25.65;19.07;;;;;;;0.77;88.83;99551.80;1744044;82;21603;-67
2021/01/23 01:22:59;;;;;;;28.32;18.55;;;;;;;0.77;88.80;99557.36;1760538;81;22187;-69
2021/01/23 01:25:27;;;;;;;29.90;20.10;;;;;;;0.76;88.83;99547.98;1744048;82;21528;-66
2021/01/23 01:27:56;;;;;;;27.98;20.32;;;;;;;0.77;88.86;99553.08;1760562;81;21476;-68
2021/01/23 01:30:24;;;;;;;28.00;20.45;;;;;;;0.78;88.85;99548.80;1743978;82;21497;-68
2021/01/23 01:32:53;;;;;;;29.82;20.92;;;;;;;0.79;88.81;99545.36;1760692;81;20958;-68
2021/01/23 01:35:21;;;;;;;29.20;19.17;;;;;;;0.78;88.75;99556.05;1743985;82;22156;-66
2021/01/23 01:37:50;;;;;;;26.90;20.30;;;;;;;0.79;88.82;99561.57;1760520;81;21579;-68
2021/01/23 01:40:19;;;;;;;26.48;20.32;;;;;;;0.77;88.71;99551.80;1744005;82;21560;-68
2021/01/23 01:42:47;;;;;;;26.10;19.50;;;;;;;0.74;88.64;99560.00;1760551;81;21508;-69
2021/01/23 01:45:16;;;;;;;25.85;18.77;;;;;;;0.70;88.73;99566.06;1744104;82;21706;-69
2021/01/23 01:47:44;;;;;;;27.65;20.52;;;;;;;0.65;88.71;99573.86;1760491;81;21516;-68
2021/01/23 01:50:14;;;;;;;26.85;18.17;;;;;;;0.59;88.78;99571.00;1743931;82;20966;-66
2021/01/23 01:52:44;;;;;;;23.80;18.37;;;;;;;0.53;88.92;99572.85;1760663;81;21350;-70
2021/01/23 01:55:13;;;;;;;24.43;18.87;;;;;;;0.48;89.04;99578.08;1744012;81;21500;-68
2021/01/23 01:57:42;;;;;;;22.65;18.87;;;;;;;0.43;89.15;99580.33;1729396;81;21017;-70
2021/01/23 02:00:12;;;;;;;26.70;19.62;;;;;;;0.39;89.33;99576.19;1744120;82;22111;-67
2021/01/23 02:03:09;;;;;;;23.15;17.67;;;;;;;0.37;89.37;99570.25;1760572;81;20977;-68
2021/01/23 02:06:06;;;;;;;30.92;19.23;;;;;;;0.35;89.51;99566.45;1738080;82;21658;-66
2021/01/23 02:08:54;;;;;;;25.57;17.65;;;;;;;0.32;89.64;99569.91;1760715;81;21623;-68
2021/01/23 02:12:02;;;;;;;27.58;19.60;;;;;;;0.30;89.67;99568.26;1735062;81;21515;-68
2021/01/23 02:14:56;;;;;;;24.72;17.80;;;;;;;0.27;89.76;99558.92;1810326;79;21242;-68
2021/01/23 02:17:33;;;;;;;28.83;20.48;;;;;;;0.25;89.79;99557.27;1733535;82;21874;-67
2021/01/23 02:20:45;;;;;;;25.82;18.70;;;;;;;0.22;89.75;99557.34;1810314;78;20994;-68
2021/01/23 02:23:30;;;;;;;28.47;19.37;;;;;;;0.19;89.72;99566.36;1733557;82;21497;-67
2021/01/23 02:26:23;;;;;;;27.55;20.12;;;;;;;0.14;89.73;99566.90;1810378;79;21559;-67
2021/01/23 02:29:09;;;;;;;26.37;19.57;;;;;;;0.11;89.74;99573.36;1686067;79;22296;-68
2021/01/23 02:31:41;;;;;;;25.25;19.25;;;;;;;0.07;89.77;99570.45;1733706;82;21612;-66
2021/01/23 02:34:11;;;;;;;25.45;18.67;;;;;;;0.05;89.63;99569.64;1733317;82;21604;-67
2021/01/23 02:36:40;;;;;;;26.07;18.10;;;;;;;0.00;89.65;99564.18;1810310;78;21559;-68
2021/01/23 02:39:10;;;;;;;23.87;18.12;;;;;;;-0.03;89.63;99563.43;1733641;82;21034;-67
2021/01/23 02:41:38;;;;;;;22.65;18.00;;;;;;;-0.10;89.64;99561.43;1810442;79;22323;-65
2021/01/23 02:44:07;;;;;;;26.12;18.95;;;;;;;-0.13;89.78;99558.93;1733531;82;21533;-67
2021/01/23 02:46:35;;;;;;;28.15;18.95;;;;;;;-0.15;89.80;99567.52;1733694;82;21473;-67
2021/01/23 02:49:04;;;;;;;24.60;18.37;;;;;;;-0.17;89.82;99560.30;1810306;79;21465;-67
2021/01/23 02:51:55;;;;;;;25.68;18.52;;;;;;;-0.18;89.87;99565.02;1733640;82;21569;-67
2021/01/23 02:54:59;;;;;;;26.75;18.90;;;;;;;-0.22;89.86;99568.06;1810338;79;22077;-67
2021/01/23 02:57:27;;;;;;;27.40;20.20;;;;;;;-0.27;89.99;99580.54;1733656;82;21623;-66
2021/01/23 02:59:58;;;;;;;23.83;18.02;;;;;;;-0.29;90.12;99577.16;1733632;82;21496;-66
2021/01/23 03:02:27;;;;;;;27.95;19.37;;;;;;;-0.30;90.23;99572.48;1733295;82;21619;-67
2021/01/23 03:04:58;;;;;;;23.38;18.62;;;;;;;-0.30;90.26;99569.09;1733625;82;21490;-67
2021/01/23 03:07:26;;;;;;;24.98;19.67;;;;;;;-0.32;90.27;99569.11;1810267;79;21196;-66
2021/01/23 03:09:54;;;;;;;25.08;20.48;;;;;;;-0.32;90.32;99564.44;1734561;82;21548;-67
2021/01/23 03:12:23;;;;;;;24.60;18.60;;;;;;;-0.32;90.28;99565.28;1760664;81;21488;-66
2021/01/23 03:14:51;;;;;;;28.32;19.95;;;;;;;-0.32;90.30;99573.39;1744118;81;21575;-65
2021/01/23 03:17:20;;;;;;;24.98;18.65;;;;;;;-0.34;90.20;99569.58;1760717;81;21555;-65
2021/01/23 03:19:48;;;;;;;26.50;19.42;;;;;;;-0.34;90.22;99571.70;1744212;82;22089;-67
2021/01/23 03:22:17;;;;;;;27.67;19.25;;;;;;;-0.36;90.29;99572.16;1760641;81;21500;-65
2021/01/23 03:24:45;;;;;;;27.13;19.52;;;;;;;-0.36;90.26;99574.72;1744116;82;21560;-65
2021/01/23 03:27:13;;;;;;;24.92;17.82;;;;;;;-0.37;90.37;99571.76;1760600;81;21488;-65
2021/01/23 03:29:42;;;;;;;23.87;18.65;;;;;;;-0.37;90.36;99569.20;1744084;82;21560;-65
2021/01/23 03:32:10;;;;;;;24.87;18.65;;;;;;;-0.38;90.28;99569.23;1760679;81;22253;-65
2021/01/23 03:34:39;;;;;;;27.65;18.77;;;;;;;-0.40;90.42;99559.02;1744045;82;21037;-65
2021/01/23 03:37:08;;;;;;;24.67;18.87;;;;;;;-0.41;90.40;99561.20;1760742;81;21484;-65
2021/01/23 03:39:36;;;;;;;28.02;19.10;;;;;;;-0.44;90.39;99562.55;1744088;82;21521;-64
2021/01/23 03:42:06;;;;;;;28.35;19.23;;;;;;;-0.46;90.43;99560.89;1760688;81;21598;-65
2021/01/23 03:44:34;;;;;;;26.02;19.12;;;;;;;-0.48;90.45;99566.47;1744103;82;21381;-67
2021/01/23 03:47:02;;;;;;;29.00;20.08;;;;;;;-0.53;90.53;99568.26;1760582;81;21500;-64
2021/01/23 03:49:31;;;;;;;25.95;17.95;;;;;;;-0.55;90.61;99570.84;1744074;82;21596;-65
2021/01/23 03:52:00;;;;;;;26.23;19.75;;;;;;;-0.58;90.77;99574.73;1760597;81;21563;-67
2021/01/23 03:54:28;;;;;;;26.35;18.92;;;;;;;-0.63;90.92;99573.97;1744118;82;21631;-67
2021/01/23 03:56:56;;;;;;;25.10;18.17;;;;;;;-0.65;91.14;99576.15;1760630;81;22178;-66
2021/01/23 03:59:25;;;;;;;26.00;18.10;;;;;;;-0.67;91.22;99585.12;1744114;82;21497;-64
2021/01/23 04:01:53;;;;;;;26.93;19.70;;;;;;;-0.69;91.37;99594.53;1760614;81;21496;-67
2021/01/23 04:04:22;;;;;;;26.70;18.65;;;;;;;-0.71;91.47;99594.99;1744054;82;21587;-64
2021/01/23 04:06:51;;;;;;;25.72;19.00;;;;;;;-0.72;91.66;99591.59;1760635;81;21554;-65
2021/01/23 04:09:19;;;;;;;31.05;21.17;;;;;;;-0.71;91.80;99588.60;1744054;81;22099;-66
2021/01/23 04:11:48;;;;;;;30.88;21.07;;;;;;;-0.71;91.96;99589.45;1751832;81;21643;-65
2021/01/23 04:14:17;;;;;;;29.55;20.35;;;;;;;-0.69;92.17;99590.27;1724540;82;21492;-64
2021/01/23 04:16:48;;;;;;;29.15;19.73;;;;;;;-0.67;92.46;99598.75;1786585;80;21477;-67
2021/01/23 04:19:17;;;;;;;32.78;21.02;;;;;;;-0.64;92.57;99610.64;1786726;80;21357;-68
2021/01/23 04:21:46;;;;;;;33.05;22.00;;;;;;;-0.64;92.65;99603.41;1786696;80;21985;-67
2021/01/23 04:24:14;;;;;;;34.88;22.55;;;;;;;-0.64;92.71;99602.97;1786510;80;21520;-66
2021/01/23 04:26:43;;;;;;;34.95;21.27;;;;;;;-0.63;92.82;99621.27;1786571;80;21477;-67
2021/01/23 04:29:12;;;;;;;34.00;22.37;;;;;;;-0.61;92.88;99616.13;1786535;80;21591;-67
2021/01/23 04:31:41;;;;;;;35.78;22.25;;;;;;;-0.62;92.97;99607.63;1786633;80;21540;-67
2021/01/23 04:34:09;;;;;;;38.28;22.90;;;;;;;-0.63;93.09;99608.49;1786587;80;22162;-67
2021/01/23 04:36:38;;;;;;;35.55;22.62;;;;;;;-0.61;93.15;99613.58;1786608;80;21599;-67
2021/01/23 04:39:06;;;;;;;37.05;23.20;;;;;;;-0.62;93.40;99607.63;1786616;80;21374;-68
2021/01/23 04:41:35;;;;;;;35.95;24.10;;;;;;;-0.60;93.57;99610.99;1786563;79;21389;-66
2021/01/23 04:44:04;;;;;;;35.10;22.15;;;;;;;-0.58;93.70;99615.64;1786685;80;21385;-68
2021/01/23 04:46:33;;;;;;;34.27;22.05;;;;;;;-0.55;93.89;99604.52;1767311;80;22412;-65
2021/01/23 04:49:03;;;;;;;34.18;23.07;;;;;;;-0.53;94.00;99612.58;1786551;80;21459;-68
2021/01/23 04:51:31;;;;;;;38.42;24.10;;;;;;;-0.50;94.10;99610.41;1786600;80;20954;-67
2021/01/23 04:53:59;;;;;;;36.50;23.27;;;;;;;-0.46;94.41;99603.92;1786551;80;21467;-68
2021/01/23 04:56:28;;;;;;;37.53;23.20;;;;;;;-0.40;94.46;99605.53;1786648;80;21563;-66
2021/01/23 04:58:57;;;;;;;33.50;21.52;;;;;;;-0.39;94.45;99604.63;1786578;80;22262;-67
2021/01/23 05:01:25;;;;;;;34.25;22.45;;;;;;;-0.36;94.68;99612.25;1786620;80;21492;-68
2021/01/23 05:04:01;;;;;;;33.33;21.12;;;;;;;-0.31;94.90;99609.17;1786647;80;21492;-67
2021/01/23 05:06:30;;;;;;;33.18;22.17;;;;;;;-0.27;94.85;99613.80;1786586;80;21013;-68
2021/01/23 05:09:00;;;;;;;36.80;22.30;;;;;;;-0.26;94.78;99609.09;1786649;80;21536;-68
2021/01/23 05:11:46;;;;;;;33.90;22.15;;;;;;;-0.28;94.74;99604.00;1796313;79;22157;-68
2021/01/23 05:14:16;;;;;;;29.02;19.50;;;;;;;-0.31;94.83;99607.89;1733486;82;20951;-67
2021/01/23 05:16:45;;;;;;;34.03;21.37;;;;;;;-0.30;95.07;99607.45;1810216;79;21552;-66
2021/01/23 05:19:13;;;;;;;29.32;19.23;;;;;;;-0.30;95.17;99604.90;1733458;82;21482;-69
2021/01/23 05:21:42;;;;;;;33.63;23.15;;;;;;;-0.29;95.41;99604.87;1733582;82;21575;-67
2021/01/23 05:24:13;;;;;;;31.93;21.97;;;;;;;-0.20;96.05;99610.25;1810178;79;21421;-67
2021/01/23 05:26:42;;;;;;;32.53;21.68;;;;;;;-0.13;95.96;99620.34;1810174;79;21057;-68
2021/01/23 05:29:14;;;;;;;37.50;22.13;;;;;;;-0.09;95.69;99618.58;1726800;82;21596;-68
2021/01/23 05:31:43;;;;;;;33.33;22.25;;;;;;;-0.08;95.48;99616.42;1733496;81;21489;-67
2021/01/23 05:34:31;;;;;;;36.08;24.07;;;;;;;-0.07;95.78;99620.23;1733522;82;21580;-67
2021/01/23 05:36:59;;;;;;;32.78;21.02;;;;;;;-0.02;95.87;99620.98;1733626;82;21488;-65
2021/01/23 05:39:50;;;;;;;35.23;21.90;;;;;;;0.04;95.85;99617.87;1810176;79;21630;-67
2021/01/23 05:42:18;;;;;;;29.18;19.62;;;;;;;0.05;95.63;99625.52;1733763;82;21465;-68
2021/01/23 05:45:10;;;;;;;34.10;22.65;;;;;;;0.06;95.59;99619.96;1733627;82;21506;-67
2021/01/23 05:47:39;;;;;;;31.30;20.97;;;;;;;0.08;95.86;99616.94;1810357;79;20994;-67
2021/01/23 05:50:09;;;;;;;32.15;21.20;;;;;;;0.15;96.32;99611.66;1733669;82;21320;-67
2021/01/23 05:52:37;;;;;;;23.95;16.57;;;;;;;0.26;96.54;99613.57;1733604;82;21386;-67
2021/01/23 05:55:07;;;;;;;30.20;20.40;;;;;;;0.34;96.05;99615.98;1733653;81;21469;-67
2021/01/23 05:57:36;;;;;;;28.67;19.23;;;;;;;0.34;95.44;99623.66;1733633;82;20975;-67
2021/01/23 06:00:08;;;;;;;27.98;18.90;;;;;;;0.32;95.09;99626.25;1733646;81;21359;-68
2021/01/23 06:02:36;;;;;;;32.08;20.75;;;;;;;0.31;95.18;99638.65;1733757;82;22088;-67
2021/01/23 06:05:06;;;;;;;28.67;20.37;;;;;;;0.39;96.13;99646.61;1733567;82;21517;-67
2021/01/23 06:07:43;;;;;;;29.18;20.17;;;;;;;0.50;96.00;99650.61;1777204;79;20931;-67
2021/01/23 06:10:32;;;;;;;31.95;21.60;;;;;;;0.59;95.74;99646.58;1810310;79;21567;-68
2021/01/23 06:13:02;;;;;;;35.30;22.27;;;;;;;0.66;95.45;99661.38;1733569;82;20994;-67
2021/01/23 06:15:39;;;;;;;26.97;18.98;;;;;;;0.75;95.61;99664.19;1733728;81;22094;-67
2021/01/23 06:18:09;;;;;;;32.75;20.95;;;;;;;0.79;94.77;99661.95;1733621;81;20979;-67
2021/01/23 06:20:46;;;;;;;30.35;20.62;;;;;;;0.75;94.13;99656.50;1711093;82;21518;-67
2021/01/23 06:23:20;;;;;;;28.35;19.25;;;;;;;0.69;93.88;99655.34;1810309;79;21445;-65
2021/01/23 06:25:55;;;;;;;29.67;19.75;;;;;;;0.58;94.13;99662.82;1733818;82;21461;-65
2021/01/23 06:28:41;;;;;;;26.40;18.32;;;;;;;0.58;94.13;99662.82;1733631;82;21211;-63
2021/01/23 06:31:29;;;;;;;34.50;21.87;;;;;;;0.55;94.21;99662.88;1733801;82;21394;-66
2021/01/23 06:33:58;;;;;;;39.25;23.73;;;;;;;0.52;94.27;99653.14;1810425;79;21496;-66
2021/01/23 06:36:26;;;;;;;32.42;21.27;;;;;;;0.51;94.47;99654.86;1733560;82;21514;-64
2021/01/23 06:39:09;;;;;;;38.48;24.10;;;;;;;0.52;94.61;99654.42;1810347;79;20927;-66
2021/01/23 06:41:38;;;;;;;36.93;24.55;;;;;;;0.53;94.68;99656.95;1733752;82;22182;-66
2021/01/23 06:44:12;;;;;;;34.60;22.27;;;;;;;0.54;94.79;99655.23;1733627;82;21540;-67
2021/01/23 06:46:44;;;;;;;32.10;21.17;;;;;;;0.57;94.87;99650.05;1733694;82;21429;-64
2021/01/23 06:49:14;;;;;;;30.23;19.45;;;;;;;0.57;94.95;99660.29;1732130;82;21579;-67
2021/01/23 06:51:43;;;;;;;36.30;21.85;;;;;;;0.61;95.03;99660.19;1810388;79;21548;-65
2021/01/23 06:54:21;;;;;;;30.27;20.23;;;;;;;0.62;94.96;99655.47;1733591;82;22103;-66
2021/01/23 06:56:53;;;;;;;35.92;23.25;;;;;;;0.66;95.05;99663.50;1733550;82;21572;-64
2021/01/23 06:59:27;;;;;;;36.70;24.72;;;;;;;0.69;95.12;99663.03;1810333;79;21556;-66
2021/01/23 07:02:07;;;;;;;40.75;24.72;;;;;;;0.75;95.20;99669.30;1733694;82;20947;-67
2021/01/23 07:04:49;;;;;;;36.23;23.25;;;;;;;0.83;95.19;99673.80;1810373;79;20894;-66
2021/01/23 07:07:18;;;;;;;36.35;22.32;;;;;;;0.89;95.10;99679.63;1733609;82;21321;-66
2021/01/23 07:09:51;;;;;;;40.95;25.57;;;;;;;0.95;94.88;99682.50;1733514;82;20962;-67
2021/01/23 07:12:39;;;;;;;35.40;23.05;;;;;;;0.97;94.73;99682.03;1739130;82;21046;-67
2021/01/23 07:15:23;;;;;;;32.53;20.50;;;;;;;1.02;94.64;99693.02;1760619;81;20950;-65
2021/01/23 07:17:52;;;;;;;36.35;23.02;;;;;;;1.05;94.47;99689.11;1742826;82;21587;-66
2021/01/23 07:20:20;;;;;;;36.08;22.98;;;;;;;1.04;94.32;99689.98;1760598;81;22152;-66
2021/01/23 07:22:49;;;;;;;37.50;23.95;;;;;;;1.05;94.23;99694.23;1744062;82;21631;-67
2021/01/23 07:25:18;;;;;;;40.60;25.55;;;;;;;1.01;94.06;99690.06;1760737;81;21512;-68
2021/01/23 07:27:46;;;;;;;36.30;23.22;;;;;;;0.99;94.26;99692.66;1744109;82;21592;-68
2021/01/23 07:30:16;;;;;;;35.85;23.32;;;;;;;1.01;94.38;99690.06;1729248;81;21579;-67
2021/01/23 07:32:46;;;;;;;43.70;29.05;;;;;;;1.02;94.35;99684.05;1744096;82;21199;-66
2021/01/23 07:35:15;;;;;;;50.80;29.77;;;;;;;1.06;94.42;99675.85;1760693;81;21624;-66
2021/01/23 07:37:50;;;;;;;36.20;21.95;;;;;;;1.10;94.43;99684.72;1744090;82;21596;-64
2021/01/23 07:40:27;;;;;;;45.65;27.62;;;;;;;1.15;94.42;99686.74;1760727;81;21504;-66
2021/01/23 07:43:00;;;;;;;55.60;31.75;;;;;;;1.18;94.18;99673.85;1744129;82;20955;-67
2021/01/23 07:45:28;;;;;;;51.77;32.38;;;;;;;1.21;94.25;99669.06;1760747;81;22311;-67
2021/01/23 07:48:04;;;;;;;63.58;33.33;;;;;;;1.26;94.16;99671.08;1744006;82;21547;-67
2021/01/23 07:50:41;;;;;;;58.73;30.55;;;;;;;1.28;93.98;99677.02;1760653;81;20934;-67
2021/01/23 07:53:20;;;;;;;54.98;28.80;;;;;;;1.30;93.82;99681.23;1744273;82;21607;-68
2021/01/23 07:55:49;;;;;;;61.15;30.20;;;;;;;1.33;93.72;99673.90;1760684;81;21171;-64
2021/01/23 07:58:18;;;;;;;65.62;32.00;;;;;;;1.37;93.70;99673.39;1744151;82;22210;-67
2021/01/23 08:00:46;;;;;;;74.67;33.25;;;;;;;1.42;93.64;99671.55;1760540;81;20922;-67
2021/01/23 08:03:16;;;;;;;66.47;30.72;;;;;;;1.47;93.48;99673.13;1744048;82;21323;-64
2021/01/23 08:05:51;;;;;;;61.45;31.65;;;;;;;1.53;93.25;99677.27;1760604;81;20946;-65
2021/01/23 08:08:36;;;;;;;53.97;28.40;;;;;;;1.55;93.11;99685.33;1744418;82;21614;-67
2021/01/23 08:11:06;;;;;;;41.10;24.87;;;;;;;1.60;92.91;99684.75;1760644;81;21455;-64
2021/01/23 08:13:35;;;;;;;50.33;29.92;;;;;;;1.62;92.60;99689.41;1734438;81;20931;-64
2021/01/23 08:16:13;;;;;;;44.58;26.85;;;;;;;1.61;92.49;99694.58;1810318;79;20926;-68
2021/01/23 08:18:44;;;;;;;59.55;33.45;;;;;;;1.59;92.40;99693.80;1733624;82;21033;-63
2021/01/23 08:21:21;;;;;;;64.90;32.42;;;;;;;1.57;92.52;99687.42;1810177;79;21611;-67
2021/01/23 08:23:50;;;;;;;61.42;32.35;;;;;;;1.59;92.39;99679.69;1733553;82;21301;-65
2021/01/23 08:26:18;;;;;;;64.47;33.67;;;;;;;1.58;92.46;99675.44;1810236;79;21586;-65
2021/01/23 08:28:48;;;;;;;72.03;41.40;;;;;;;1.62;92.49;99677.02;1733573;82;20956;-65
2021/01/23 08:31:24;;;;;;;75.83;45.08;;;;;;;1.67;92.56;99680.30;1733511;82;21524;-66
2021/01/23 08:33:55;;;;;;;67.92;39.92;;;;;;;1.73;92.50;99682.72;1733581;82;21085;-66
2021/01/23 08:36:26;;;;;;;60.10;36.80;;;;;;;1.81;92.37;99690.23;1810257;79;21192;-68
2021/01/23 08:39:05;;;;;;;49.70;31.00;;;;;;;1.85;92.09;99696.97;1733570;82;21504;-68
2021/01/23 08:41:34;;;;;;;45.00;28.02;;;;;;;1.91;92.06;99699.38;1733539;81;20951;-69
2021/01/23 08:44:04;;;;;;;57.30;33.42;;;;;;;1.94;91.69;99683.45;1733452;82;20998;-68
2021/01/23 08:46:32;;;;;;;48.20;29.40;;;;;;;1.95;91.51;99688.99;1733555;81;20974;-65
2021/01/23 08:49:01;;;;;;;39.63;24.23;;;;;;;1.98;91.50;99697.90;1733596;81;21445;-67
2021/01/23 08:51:33;;;;;;;37.05;22.95;;;;;;;2.01;91.18;99688.80;1810117;78;21001;-67
2021/01/23 08:54:00;;;;;;;36.30;22.77;;;;;;;2.00;90.83;99696.55;1733605;82;21561;-67
2021/01/23 08:56:29;;;;;;;40.52;23.90;;;;;;;1.95;90.74;99692.84;1733557;82;21600;-66
2021/01/23 08:58:58;;;;;;;34.03;22.60;;;;;;;1.93;90.73;99688.19;1810257;79;21598;-67
2021/01/23 09:01:26;;;;;;;43.45;25.35;;;;;;;1.93;90.74;99690.76;1733587;82;22045;-66
2021/01/23 09:03:55;;;;;;;33.73;22.65;;;;;;;1.94;90.75;99694.16;1733521;82;21501;-68
2021/01/23 09:06:24;;;;;;;34.48;22.70;;;;;;;1.93;90.61;99693.33;1810217;79;21060;-66
2021/01/23 09:08:52;;;;;;;36.38;23.45;;;;;;;1.89;90.44;99700.70;1733435;82;21628;-67
2021/01/23 09:11:21;;;;;;;37.55;23.67;;;;;;;1.84;90.52;99698.69;1810222;79;21006;-67
2021/01/23 09:13:50;;;;;;;36.23;24.37;;;;;;;1.82;90.70;99696.61;1737869;80;22186;-67
2021/01/23 09:16:18;;;;;;;30.92;20.50;;;;;;;1.82;90.74;99688.91;1770124;81;21510;-66
2021/01/23 09:18:47;;;;;;;38.50;23.98;;;;;;;1.82;90.65;99694.04;1803349;79;21469;-64
2021/01/23 09:21:15;;;;;;;41.28;22.93;;;;;;;1.80;90.59;99700.09;1803330;79;20928;-66
2021/01/23 09:23:44;;;;;;;39.27;24.37;;;;;;;1.79;90.58;99699.25;1803464;79;21463;-68
2021/01/23 09:26:12;;;;;;;37.67;23.60;;;;;;;1.73;90.63;99691.70;1803349;79;22155;-68
2021/01/23 09:28:41;;;;;;;46.90;27.45;;;;;;;1.71;90.79;99688.33;1803346;79;21605;-64
2021/01/23 09:31:10;;;;;;;47.80;28.65;;;;;;;1.70;90.88;99687.93;1803440;79;21582;-64
2021/01/23 09:33:39;;;;;;;49.40;29.20;;;;;;;1.73;90.97;99681.87;1803350;79;21492;-66
2021/01/23 09:36:08;;;;;;;47.85;27.48;;;;;;;1.75;90.97;99682.23;1803474;79;21541;-67
2021/01/23 09:38:36;;;;;;;40.63;23.18;;;;;;;1.82;91.03;99670.09;1800470;79;22119;-66
2021/01/23 09:41:05;;;;;;;42.35;25.17;;;;;;;1.86;90.88;99672.54;1794155;79;21945;-67
2021/01/23 09:43:33;;;;;;;61.28;31.90;;;;;;;1.89;90.67;99663.92;1771665;81;21548;-65
2021/01/23 09:46:01;;;;;;;45.08;26.35;;;;;;;1.92;90.62;99667.69;1770665;81;21645;-64
2021/01/23 09:48:31;;;;;;;54.60;28.52;;;;;;;1.98;90.55;99665.80;1771603;80;21604;-67
2021/01/23 09:50:59;;;;;;;51.80;28.20;;;;;;;2.03;90.38;99657.10;1771654;81;22180;-65
2021/01/23 09:53:27;;;;;;;42.85;26.50;;;;;;;2.09;90.31;99665.93;1771659;81;21501;-63
2021/01/23 09:55:58;;;;;;;43.05;26.52;;;;;;;2.16;90.17;99673.42;1771704;80;21383;-67
2021/01/23 09:58:26;;;;;;;39.23;24.40;;;;;;;2.22;89.82;99677.11;1772724;79;21529;-64
2021/01/23 10:00:54;;;;;;;47.85;28.05;;;;;;;2.24;89.57;99674.50;1771481;81;22194;-67
2021/01/23 10:03:23;;;;;;;49.38;28.60;;;;;;;2.21;89.16;99671.58;1771428;81;22940;-68
2021/01/23 10:05:52;;;;;;;40.52;25.40;;;;;;;2.21;89.44;99671.58;1771642;81;21449;-66
2021/01/23 10:08:20;;;;;;;43.98;26.95;;;;;;;2.25;89.30;99677.47;1771635;81;21601;-67
2021/01/23 10:10:49;;;;;;;43.42;26.95;;;;;;;2.21;89.10;99672.86;1771690;81;21917;-67
2021/01/23 10:13:17;;;;;;;46.48;26.80;;;;;;;2.18;89.05;99667.80;1785513;79;20946;-69
2021/01/23 10:15:46;;;;;;;44.85;26.82;;;;;;;2.17;89.20;99671.26;1798616;79;22363;-67
2021/01/23 10:18:15;;;;;;;43.05;25.97;;;;;;;2.19;89.26;99678.92;1798035;79;21662;-68
2021/01/23 10:20:43;;;;;;;35.28;22.58;;;;;;;2.20;89.18;99672.90;1797960;79;21192;-68
2021/01/23 10:23:12;;;;;;;37.42;24.23;;;;;;;2.23;89.09;99672.38;1798307;79;21018;-67
2021/01/23 10:25:41;;;;;;;38.67;24.67;;;;;;;2.21;88.98;99669.00;1798516;79;21452;-68
2021/01/23 10:28:10;;;;;;;42.27;25.02;;;;;;;2.23;89.17;99682.66;1798544;79;22146;-68
2021/01/23 10:30:38;;;;;;;39.03;24.23;;;;;;;2.23;88.97;99674.10;1798699;79;21639;-68
2021/01/23 10:33:07;;;;;;;35.95;22.98;;;;;;;2.21;89.00;99667.72;1798935;79;21518;-65
2021/01/23 10:35:35;;;;;;;38.40;24.27;;;;;;;2.18;89.03;99666.97;1799232;79;21473;-64
2021/01/23 10:38:04;;;;;;;40.48;24.07;;;;;;;2.17;89.29;99664.84;1799364;79;21564;-65
2021/01/23 10:40:33;;;;;;;35.38;23.90;;;;;;;2.20;89.72;99662.62;1799251;79;21198;-64
2021/01/23 10:43:01;;;;;;;41.70;25.00;;;;;;;2.25;89.50;99662.90;1799191;79;21619;-64
2021/01/23 10:45:30;;;;;;;35.75;22.48;;;;;;;2.29;89.21;99663.66;1799249;79;21552;-64
2021/01/23 10:47:58;;;;;;;39.42;25.08;;;;;;;2.29;88.79;99667.52;1799235;79;21473;-64
2021/01/23 10:50:26;;;;;;;41.70;24.80;;;;;;;2.21;88.48;99670.29;1799266;79;21493;-64
2021/01/23 10:52:55;;;;;;;38.38;24.92;;;;;;;2.17;88.64;99677.68;1799144;79;21526;-64
2021/01/23 10:55:24;;;;;;;46.02;27.13;;;;;;;2.12;88.72;99667.13;1798361;79;22481;-66
2021/01/23 10:57:52;;;;;;;45.73;26.68;;;;;;;2.09;88.93;99677.05;1798334;79;21308;-65
2021/01/23 11:00:23;;;;;;;44.05;27.65;;;;;;;2.09;89.02;99689.88;1799130;79;21452;-63
2021/01/23 11:02:51;;;;;;;38.08;24.47;;;;;;;2.12;89.14;99689.80;1799240;79;20994;-65
2021/01/23 11:05:20;;;;;;;36.23;22.87;;;;;;;2.17;89.13;99683.26;1799205;79;22166;-64
2021/01/23 11:07:50;;;;;;;33.45;21.90;;;;;;;2.18;88.79;99675.52;1797907;79;21619;-64
2021/01/23 11:10:20;;;;;;;50.92;28.57;;;;;;;2.17;88.96;99669.12;1799277;79;20964;-64
2021/01/23 11:12:49;;;;;;;38.08;23.83;;;;;;;2.20;89.13;99663.91;1799092;79;21003;-64
2021/01/23 11:15:17;;;;;;;37.42;23.92;;;;;;;2.21;88.81;99663.87;1799229;79;20950;-64
2021/01/23 11:17:46;;;;;;;40.78;26.05;;;;;;;2.20;88.66;99667.77;1799242;79;21445;-64
2021/01/23 11:20:14;;;;;;;39.18;23.70;;;;;;;2.17;88.68;99672.55;1799201;79;21496;-64
2021/01/23 11:22:44;;;;;;;39.35;25.08;;;;;;;2.17;88.74;99663.55;1799316;79;20939;-65
2021/01/23 11:25:13;;;;;;;33.98;23.67;;;;;;;2.18;88.68;99670.81;1799231;79;21604;-64
2021/01/23 11:27:42;;;;;;;36.95;24.80;;;;;;;2.15;88.57;99663.20;1799310;79;21552;-63
2021/01/23 11:30:13;;;;;;;39.67;26.70;;;;;;;2.11;88.70;99661.59;1799157;79;21206;-63
2021/01/23 11:32:42;;;;;;;38.42;25.15;;;;;;;2.09;88.98;99650.52;1799098;79;21038;-63
2021/01/23 11:35:10;;;;;;;43.95;27.05;;;;;;;2.10;88.98;99657.34;1799179;79;21572;-64
2021/01/23 11:37:39;;;;;;;44.40;26.77;;;;;;;2.09;89.15;99656.50;1799127;79;21061;-65
2021/01/23 11:40:08;;;;;;;42.75;26.12;;;;;;;2.14;89.16;99671.78;1799165;79;21496;-63
2021/01/23 11:42:37;;;;;;;42.20;25.62;;;;;;;2.14;89.24;99667.48;1799230;79;21125;-67